sensor_id;sensor_type;location;lat;lon;timestamp;pressure;altitude;pressure_sealevel;temperature;humidity
46382;BME280;66809;52.974;-2.514;2023-04-27T00:01:50;1010.4953572817196;;;5.428414155336325;38.036478427238734
46382;BME280;66809;52.974;-2.514;2023-04-27T00:03:50;1010.4887942951991;;;5.450072902530457;38.03983799170551
46382;BME280;66809;52.974;-2.514;2023-04-27T00:05:49;1010.4832439556869;;;5.464422874515651;38.036101591388075
46382;BME280;66809;52.974;-2.514;2023-04-27T00:07:50;1010.4779015227108;;;5.470284256968804;38.02846068306314
46382;BME280;66809;52.974;-2.514;2023-04-27T00:09:50;1010.4720665429044;;;5.480647108443747;38.02275882220503
46382;BME280;66809;52.974;-2.514;2023-04-27T00:11:50;1010.466396920385;;;5.50197886093668;38.013838512949704
46382;BME280;66809;52.974;-2.514;2023-04-27T00:13:50;1010.4600926897789;;;5.516366117897279;37.997820323314926
46382;BME280;66809;52.974;-2.514;2023-04-27T00:15:50;1010.4519468823815;;;5.5394892665229225;37.96372550171223
46382;BME280;66809;52.974;-2.514;2023-04-27T00:17:50;1010.4429809961091;;;5.564008923157287;37.91775812753267
46382;BME280;66809;52.974;-2.514;2023-04-27T00:19:50;1010.432174783525;;;5.586060331978726;37.86488252218567
46382;BME280;66809;52.974;-2.514;2023-04-27T00:21:50;1010.4189486639933;;;5.609783670421982;37.80597424147265
46382;BME280;66809;52.974;-2.514;2023-04-27T00:23:50;1010.4049306743913;;;5.639243518550833;37.748903043132174
46382;BME280;66809;52.974;-2.514;2023-04-27T00:25:50;1010.3897426337124;;;5.6587846893724345;37.685993550354404
46382;BME280;66809;52.974;-2.514;2023-04-27T00:27:49;1010.3737361575426;;;5.681022792730715;37.6154982258312
46382;BME280;66809;52.974;-2.514;2023-04-27T00:29:50;1010.3579639884146;;;5.707070430018252;37.54771246329437
46382;BME280;66809;52.974;-2.514;2023-04-27T00:31:50;1010.3421528987476;;;5.732734607439033;37.482052667350324
46382;BME280;66809;52.974;-2.514;2023-04-27T00:33:50;1010.3276958792346;;;5.753869133104173;37.417546618372896
46382;BME280;66809;52.974;-2.514;2023-04-27T00:35:50;1010.3129003657142;;;5.793199135265058;37.35225342610302
46382;BME280;66809;52.974;-2.514;2023-04-27T00:37:49;1010.2968140106437;;;5.821444459423447;37.2824814692571
46382;BME280;66809;52.974;-2.514;2023-04-27T00:39:50;1010.2805366795895;;;5.855300267962893;37.206777755309524
46382;BME280;66809;52.974;-2.514;2023-04-27T00:41:49;1010.2641603998461;;;5.895608516175018;37.13094749213
46382;BME280;66809;52.974;-2.514;2023-04-27T00:43:50;1010.2486653867438;;;5.935563882069291;37.05540963351276
46382;BME280;66809;52.974;-2.514;2023-04-27T00:45:50;1010.2340852485539;;;5.975425001846673;36.97872002738157
46382;BME280;66809;52.974;-2.514;2023-04-27T00:47:50;1010.2217059542598;;;6.0043322047595895;36.9090452022978
46382;BME280;66809;52.974;-2.514;2023-04-27T00:49:49;1010.2096854785071;;;6.027643907092588;36.84736105405993
46382;BME280;66809;52.974;-2.514;2023-04-27T00:51:49;1010.200026722451;;;6.062183108586331;36.79395519867885
46382;BME280;66809;52.974;-2.514;2023-04-27T00:53:51;1010.1920660494657;;;6.077557057462187;36.73851738752418
46382;BME280;66809;52.974;-2.514;2023-04-27T00:55:50;1010.186140498629;;;6.098304389461343;36.689224552762084
46382;BME280;66809;52.974;-2.514;2023-04-27T00:57:50;1010.1803945152552;;;6.104450314182352;36.63655742122425
46382;BME280;66809;52.974;-2.514;2023-04-27T00:59:50;1010.175707920505;;;6.123238223233034;36.58953964745453
46382;BME280;66809;52.974;-2.514;2023-04-27T01:01:50;1010.172827749584;;;6.130460723009386;36.547678229445516
46382;BME280;66809;52.974;-2.514;2023-04-27T01:03:49;1010.1703756770434;;;6.145019614351381;36.50523738109725
46382;BME280;66809;52.974;-2.514;2023-04-27T01:05:50;1010.1681702829253;;;6.164988503784181;36.46718801490853
46382;BME280;66809;52.974;-2.514;2023-04-27T01:07:50;1010.1662164914784;;;6.188011934455811;36.43489611495955
46382;BME280;66809;52.974;-2.514;2023-04-27T01:09:49;1010.165365009451;;;6.197571182880477;36.40534020584128
46382;BME280;66809;52.974;-2.514;2023-04-27T01:11:50;1010.1651793610678;;;6.203072433220959;36.38561240999729
46382;BME280;66809;52.974;-2.514;2023-04-27T01:13:50;1010.1651619507658;;;6.209840498566487;36.36949460648482
46382;BME280;66809;52.974;-2.514;2023-04-27T01:15:50;1010.1660228058744;;;6.216766357333211;36.35942263719161
46382;BME280;66809;52.974;-2.514;2023-04-27T01:17:56;1010.167121876962;;;6.214057343275341;36.356176959576096
46382;BME280;66809;52.974;-2.514;2023-04-27T01:19:50;1010.168629666543;;;6.213018419669769;36.353628761407286
46382;BME280;66809;52.974;-2.514;2023-04-27T01:21:49;1010.1714611697226;;;6.210652031240287;36.3625560242192
46382;BME280;66809;52.974;-2.514;2023-04-27T01:23:50;1010.173734450618;;;6.196879855301554;36.37100645798368
46382;BME280;66809;52.974;-2.514;2023-04-27T01:25:50;1010.1756000725117;;;6.195755067557092;36.385106535517814
46382;BME280;66809;52.974;-2.514;2023-04-27T01:27:50;1010.1778606401846;;;6.191236006096429;36.40495839698589
46382;BME280;66809;52.974;-2.514;2023-04-27T01:29:49;1010.1791929031712;;;6.175532597950913;36.430751203899675
46382;BME280;66809;52.974;-2.514;2023-04-27T01:31:50;1010.1802467723348;;;6.1571796651467565;36.4603460295892
46382;BME280;66809;52.974;-2.514;2023-04-27T01:33:50;1010.1809889637054;;;6.132048429409126;36.49587936808005
46382;BME280;66809;52.974;-2.514;2023-04-27T01:35:50;1010.181098107269;;;6.109847532831505;36.53326676516315
46382;BME280;66809;52.974;-2.514;2023-04-27T01:37:50;1010.1815853322153;;;6.095389283760257;36.57318997995408
46382;BME280;66809;52.974;-2.514;2023-04-27T01:39:49;1010.1826632331514;;;6.0716256564886315;36.61506124609328
46382;BME280;66809;52.974;-2.514;2023-04-27T01:41:50;1010.1848400685184;;;6.055497297530952;36.66227178922895
46382;BME280;66809;52.974;-2.514;2023-04-27T01:43:50;1010.1858543281268;;;6.028191843454545;36.70665222125371
46382;BME280;66809;52.974;-2.514;2023-04-27T01:45:50;1010.1875851755492;;;6.023681157036631;36.75694354767472
46382;BME280;66809;52.974;-2.514;2023-04-27T01:47:50;1010.188259061364;;;6.012267988749493;36.80964679241286
46382;BME280;66809;52.974;-2.514;2023-04-27T01:49:49;1010.1880959676655;;;6.007473501908225;36.85815490615899
46382;BME280;66809;52.974;-2.514;2023-04-27T01:51:50;1010.1865019202381;;;5.9918295901033245;36.9006149765852
46382;BME280;66809;52.974;-2.514;2023-04-27T01:53:50;1010.1834226453085;;;5.993143124477194;36.945003521695476
46382;BME280;66809;52.974;-2.514;2023-04-27T01:55:50;1010.1792280579215;;;5.991074471702813;36.982945328609475
46382;BME280;66809;52.974;-2.514;2023-04-27T01:57:50;1010.1758733476184;;;5.992988211144934;37.0167837065789
46382;BME280;66809;52.974;-2.514;2023-04-27T01:59:50;1010.1731252200193;;;6.000445211056042;37.04118894621063
46382;BME280;66809;52.974;-2.514;2023-04-27T02:01:50;1010.1687367416743;;;6.009154059160739;37.062866170598234
46382;BME280;66809;52.974;-2.514;2023-04-27T02:03:50;1010.1634781298263;;;6.0028630514070995;37.08474132119492
46382;BME280;66809;52.974;-2.514;2023-04-27T02:05:50;1010.1584530123947;;;5.999428609408637;37.10057677227949
46382;BME280;66809;52.974;-2.514;2023-04-27T02:07:50;1010.1531349504788;;;5.992467306336484;37.11815430819739
46382;BME280;66809;52.974;-2.514;2023-04-27T02:09:50;1010.1476854217063;;;5.993670582054205;37.13445305486792
46382;BME280;66809;52.974;-2.514;2023-04-27T02:11:49;1010.1403940296188;;;5.997310340403691;37.14568664392881
46382;BME280;66809;52.974;-2.514;2023-04-27T02:13:50;1010.1331612943098;;;5.994291260089333;37.154185896093715
46382;BME280;66809;52.974;-2.514;2023-04-27T02:15:50;1010.1247851035793;;;5.998495774171255;37.15985433539259
46382;BME280;66809;52.974;-2.514;2023-04-27T02:17:50;1010.1170963846264;;;6.011946840737133;37.143065181685785
46382;BME280;66809;52.974;-2.514;2023-04-27T02:19:50;1010.1112398276313;;;6.018863246513016;37.14106234922046
46382;BME280;66809;52.974;-2.514;2023-04-27T02:21:49;1010.1064187133568;;;6.022714885031752;37.13049927741415
46382;BME280;66809;52.974;-2.514;2023-04-27T02:23:50;1010.1022069213349;;;6.032874337819237;37.12274787149043
46382;BME280;66809;52.974;-2.514;2023-04-27T02:25:50;1010.0981086304774;;;6.041145258404488;37.114495282720924
46382;BME280;66809;52.974;-2.514;2023-04-27T02:27:49;1010.093030696805;;;6.052953280375205;37.10049095593058
46382;BME280;66809;52.974;-2.514;2023-04-27T02:29:50;1010.088538327758;;;6.080979397606839;37.08074439240277
46382;BME280;66809;52.974;-2.514;2023-04-27T02:31:50;1010.0843528533939;;;6.098565923049668;37.05769739154733
46382;BME280;66809;52.974;-2.514;2023-04-27T02:33:50;1010.0797284424312;;;6.121157995261959;37.028333740967085
46382;BME280;66809;52.974;-2.514;2023-04-27T02:35:50;1010.0750090203339;;;6.133495308494868;36.995185499289605
46382;BME280;66809;52.974;-2.514;2023-04-27T02:37:50;1010.0694191706532;;;6.149888786397077;36.95961292789155
46382;BME280;66809;52.974;-2.514;2023-04-27T02:39:50;1010.0622940898548;;;6.170783725073487;36.9217049715185
46382;BME280;66809;52.974;-2.514;2023-04-27T02:41:50;1010.0548458395783;;;6.179676369685447;36.879430599206195
46382;BME280;66809;52.974;-2.514;2023-04-27T02:43:49;1010.0485408033588;;;6.202342232867183;36.840263144867926
46382;BME280;66809;52.974;-2.514;2023-04-27T02:45:50;1010.0404778025724;;;6.2177256922631114;36.795858921274686
46382;BME280;66809;52.974;-2.514;2023-04-27T02:47:49;1010.0304177887485;;;6.228061590811671;36.74562366986898
46382;BME280;66809;52.974;-2.514;2023-04-27T02:49:50;1010.0187838673696;;;6.238431094101441;36.69859771224219
46382;BME280;66809;52.974;-2.514;2023-04-27T02:51:50;1010.0063453866401;;;6.250680726392863;36.65703283492245
46382;BME280;66809;52.974;-2.514;2023-04-27T02:53:52;1009.9922213321628;;;6.247266771878375;36.61469882775163
46382;BME280;66809;52.974;-2.514;2023-04-27T02:55:50;1009.9776749600785;;;6.249343826389414;36.57354815821459
46382;BME280;66809;52.974;-2.514;2023-04-27T02:57:50;1009.9628158866929;;;6.241552603486407;36.538716731682065
46382;BME280;66809;52.974;-2.514;2023-04-27T02:59:50;1009.946555664649;;;6.2496266086570555;36.50825060788341
46382;BME280;66809;52.974;-2.514;2023-04-27T03:01:49;1009.9307494464607;;;6.2582299200986435;36.480309163766
46382;BME280;66809;52.974;-2.514;2023-04-27T03:03:50;1009.916054726378;;;6.2682615168845235;36.454596719618394
46382;BME280;66809;52.974;-2.514;2023-04-27T03:05:50;1009.9007422246058;;;6.269189389951614;36.43092007906609
46382;BME280;66809;52.974;-2.514;2023-04-27T03:07:50;1009.8850928873354;;;6.281170176260614;36.40179227821045
46382;BME280;66809;52.974;-2.514;2023-04-27T03:09:50;1009.8684405117773;;;6.295467983444531;36.376565797618916
46382;BME280;66809;52.974;-2.514;2023-04-27T03:11:49;1009.8518995636148;;;6.30948013650999;36.35571213441882
46382;BME280;66809;52.974;-2.514;2023-04-27T03:13:50;1009.8345256436331;;;6.320635720836834;36.336621844080085
46382;BME280;66809;52.974;-2.514;2023-04-27T03:15:50;1009.8169085275873;;;6.3300773631239755;36.31802483397162
46382;BME280;66809;52.974;-2.514;2023-04-27T03:17:50;1009.7995493566958;;;6.321328357423636;36.320230466862185
46382;BME280;66809;52.974;-2.514;2023-04-27T03:19:50;1009.780687177208;;;6.333340911275351;36.30920368070083
46382;BME280;66809;52.974;-2.514;2023-04-27T03:21:49;1009.760800454481;;;6.3373485121078845;36.30315370315658
46382;BME280;66809;52.974;-2.514;2023-04-27T03:23:50;1009.7408784651996;;;6.341984391776893;36.29391729716484
46382;BME280;66809;52.974;-2.514;2023-04-27T03:25:50;1009.7210439498684;;;6.341217992818017;36.29102878000141
46382;BME280;66809;52.974;-2.514;2023-04-27T03:27:50;1009.7031369195563;;;6.333889887624365;36.28671813674033
46382;BME280;66809;52.974;-2.514;2023-04-27T03:29:50;1009.6862108788952;;;6.324578988611611;36.290291727661256
46382;BME280;66809;52.974;-2.514;2023-04-27T03:31:50;1009.6700113674738;;;6.319047001976843;36.29416331741072
46382;BME280;66809;52.974;-2.514;2023-04-27T03:33:49;1009.6524413911873;;;6.309593280116877;36.30191939890301
46382;BME280;66809;52.974;-2.514;2023-04-27T03:35:54;1009.6339796144947;;;6.301206572838643;36.3109337345405
46382;BME280;66809;52.974;-2.514;2023-04-27T03:37:50;1009.6167581857674;;;6.282069415733869;36.31694156855403
46382;BME280;66809;52.974;-2.514;2023-04-27T03:39:49;1009.6009798286383;;;6.271120199975934;36.325776835134825
46382;BME280;66809;52.974;-2.514;2023-04-27T03:41:50;1009.5846360187091;;;6.259229997441144;36.33909016307936
46382;BME280;66809;52.974;-2.514;2023-04-27T03:43:50;1009.5678784622645;;;6.246592043078433;36.351729069838164
46382;BME280;66809;52.974;-2.514;2023-04-27T03:45:50;1009.551683145627;;;6.224035403913863;36.36582884749825
46382;BME280;66809;52.974;-2.514;2023-04-27T03:47:50;1009.5379344500768;;;6.21319357354069;36.383539666342806
46382;BME280;66809;52.974;-2.514;2023-04-27T03:49:50;1009.5243542480656;;;6.194699675335945;36.399805698602265
46382;BME280;66809;52.974;-2.514;2023-04-27T03:51:49;1009.5118697961794;;;6.179564620923061;36.42141382764193
46382;BME280;66809;52.974;-2.514;2023-04-27T03:53:50;1009.4997457003097;;;6.167250695061679;36.44234788129752
46382;BME280;66809;52.974;-2.514;2023-04-27T03:55:50;1009.4886053591911;;;6.146370754341502;36.465414258024026
46382;BME280;66809;52.974;-2.514;2023-04-27T03:57:50;1009.4768770564535;;;6.136373867244915;36.48499676444499
46382;BME280;66809;52.974;-2.514;2023-04-27T03:59:50;1009.4657737693101;;;6.112195078561244;36.509729817341245
46382;BME280;66809;52.974;-2.514;2023-04-27T04:01:50;1009.4554965931495;;;6.092374911445901;36.52718045986619
46382;BME280;66809;52.974;-2.514;2023-04-27T04:03:50;1009.4441234143862;;;6.067756228090114;36.54190558382504
46382;BME280;66809;52.974;-2.514;2023-04-27T04:05:50;1009.4330669245023;;;6.053904788370542;36.56031979741651
46382;BME280;66809;52.974;-2.514;2023-04-27T04:07:50;1009.4220410104022;;;6.038366440701217;36.57716872885014
46382;BME280;66809;52.974;-2.514;2023-04-27T04:09:49;1009.4104756047474;;;6.014497314627872;36.592938021753234
46382;BME280;66809;52.974;-2.514;2023-04-27T04:11:50;1009.399261442244;;;5.995297668763565;36.60773870073251
46382;BME280;66809;52.974;-2.514;2023-04-27T04:13:50;1009.3883364354532;;;5.983052756827961;36.62320759613845
46382;BME280;66809;52.974;-2.514;2023-04-27T04:15:59;1009.3784036132589;;;5.966566842030947;36.63857899349586
46382;BME280;66809;52.974;-2.514;2023-04-27T04:17:50;1009.368109840691;;;5.957882399068015;36.65580470088005
46382;BME280;66809;52.974;-2.514;2023-04-27T04:19:50;1009.3571304953696;;;5.929797472601323;36.680610392085605
46382;BME280;66809;52.974;-2.514;2023-04-27T04:21:50;1009.3469237393406;;;5.913798865782203;36.70180496287733
46382;BME280;66809;52.974;-2.514;2023-04-27T04:23:50;1009.336765763046;;;5.901085311875808;36.72269089685977
46382;BME280;66809;52.974;-2.514;2023-04-27T04:25:49;1009.3261551193549;;;5.885434851807293;36.7326594357089
46382;BME280;66809;52.974;-2.514;2023-04-27T04:27:50;1009.3159417023725;;;5.88588014054356;36.73975234243379
46382;BME280;66809;52.974;-2.514;2023-04-27T04:29:50;1009.3062193580068;;;5.890620524554992;36.73095232155889
46382;BME280;66809;52.974;-2.514;2023-04-27T04:31:50;1009.2970600823684;;;5.891229126153422;36.72360706605602
46382;BME280;66809;52.974;-2.514;2023-04-27T04:33:50;1009.289086985612;;;5.892644288106478;36.71197957172715
46382;BME280;66809;52.974;-2.514;2023-04-27T04:35:50;1009.2811166408306;;;5.90261891371484;36.69926060747243
46382;BME280;66809;52.974;-2.514;2023-04-27T04:37:50;1009.2734329763266;;;5.921136195977468;36.680487808542544
46382;BME280;66809;52.974;-2.514;2023-04-27T04:39:50;1009.2655051794751;;;5.925266944819762;36.65587953229276
46382;BME280;66809;52.974;-2.514;2023-04-27T04:41:49;1009.2585217561586;;;5.932960008164809;36.62833157891045
46382;BME280;66809;52.974;-2.514;2023-04-27T04:43:50;1009.2528975600267;;;5.944727897290515;36.6021160450445
46382;BME280;66809;52.974;-2.514;2023-04-27T04:45:50;1009.2479945299667;;;5.961192332658706;36.57382649931914
46382;BME280;66809;52.974;-2.514;2023-04-27T04:47:50;1009.2413124668637;;;5.969954990565564;36.5454923545971
46382;BME280;66809;52.974;-2.514;2023-04-27T04:49:50;1009.2333427973382;;;6.005733053159139;36.50776987510683
46382;BME280;66809;52.974;-2.514;2023-04-27T04:51:50;1009.224770076222;;;6.032456649365959;36.45854551241594
46382;BME280;66809;52.974;-2.514;2023-04-27T04:53:50;1009.2170005775619;;;6.072975094511597;36.400736433365665
46382;BME280;66809;52.974;-2.514;2023-04-27T04:55:50;1009.207736891182;;;6.1070314929344045;36.34644294800603
46382;BME280;66809;52.974;-2.514;2023-04-27T04:57:49;1009.1979824256214;;;6.1447119844584375;36.29320817582357
46382;BME280;66809;52.974;-2.514;2023-04-27T04:59:50;1009.1882201807738;;;6.165165599370511;36.226551054784366
46382;BME280;66809;52.974;-2.514;2023-04-27T05:01:50;1009.1789636093;;;6.196316840616212;36.16368048359364
46382;BME280;66809;52.974;-2.514;2023-04-27T05:03:50;1009.1709700265042;;;6.225376077681913;36.101207920457206
46382;BME280;66809;52.974;-2.514;2023-04-27T05:05:50;1009.163175876347;;;6.259393472789353;36.037178814163774
46382;BME280;66809;52.974;-2.514;2023-04-27T05:07:49;1009.1561826985926;;;6.285352537715993;35.97772501974969
46382;BME280;66809;52.974;-2.514;2023-04-27T05:09:50;1009.1516429621962;;;6.316451602131474;35.911941450715425
46382;BME280;66809;52.974;-2.514;2023-04-27T05:11:50;1009.1484547939349;;;6.337082890637701;35.84293465549815
46382;BME280;66809;52.974;-2.514;2023-04-27T05:13:49;1009.1443803282692;;;6.363672140215547;35.77285212009518
46382;BME280;66809;52.974;-2.514;2023-04-27T05:15:50;1009.1404094194469;;;6.3979080825724415;35.70186897277719
46382;BME280;66809;52.974;-2.514;2023-04-27T05:17:50;1009.135158322758;;;6.425280564776239;35.62385089710687
46382;BME280;66809;52.974;-2.514;2023-04-27T05:19:49;1009.1298040117107;;;6.454162362332935;35.53920829697467
46382;BME280;66809;52.974;-2.514;2023-04-27T05:21:50;1009.1232469963803;;;6.483413846018743;35.450659410251355
46382;BME280;66809;52.974;-2.514;2023-04-27T05:23:50;1009.117100754487;;;6.516968133838608;35.360557926488845
46382;BME280;66809;52.974;-2.514;2023-04-27T05:25:50;1009.1127665351436;;;6.556341099897926;35.27874056169627
46382;BME280;66809;52.974;-2.514;2023-04-27T05:27:50;1009.1068706289901;;;6.585541504078921;35.204041434650634
46382;BME280;66809;52.974;-2.514;2023-04-27T05:29:50;1009.0984535292333;;;6.609843760456065;35.1383997834417
46382;BME280;66809;52.974;-2.514;2023-04-27T05:31:50;1009.086180428213;;;6.639235581094912;35.07772788596924
46382;BME280;66809;52.974;-2.514;2023-04-27T05:33:50;1009.0729574308197;;;6.66214856028623;35.02221982739505
46382;BME280;66809;52.974;-2.514;2023-04-27T05:35:49;1009.0612626298799;;;6.681213566254922;34.96195583654618
46382;BME280;66809;52.974;-2.514;2023-04-27T05:37:49;1009.0496668053867;;;6.69626553483056;34.91379540478788
46382;BME280;66809;52.974;-2.514;2023-04-27T05:39:50;1009.037487631785;;;6.717749471275463;34.881437886420414
46382;BME280;66809;52.974;-2.514;2023-04-27T05:41:50;1009.0240961261198;;;6.743710773213868;34.854576153959
46382;BME280;66809;52.974;-2.514;2023-04-27T05:43:50;1009.0096195685032;;;6.758379057965709;34.84080516080971
46382;BME280;66809;52.974;-2.514;2023-04-27T05:45:50;1008.9963161042241;;;6.771098154198;34.83132979003308
46382;BME280;66809;52.974;-2.514;2023-04-27T05:47:49;1008.9847161369646;;;6.783353289590732;34.81565564067752
46382;BME280;66809;52.974;-2.514;2023-04-27T05:49:50;1008.977700207843;;;6.777053535716632;34.814869834515285
46382;BME280;66809;52.974;-2.514;2023-04-27T05:51:50;1008.9717763569292;;;6.791640846887002;34.80459324718253
46382;BME280;66809;52.974;-2.514;2023-04-27T05:53:50;1008.967008184376;;;6.810426065535949;34.80460384595153
46382;BME280;66809;52.974;-2.514;2023-04-27T05:55:49;1008.9628648513668;;;6.842377938479348;34.804856420793094
46382;BME280;66809;52.974;-2.514;2023-04-27T05:57:50;1008.958824278803;;;6.864272636713766;34.80038231889452
46382;BME280;66809;52.974;-2.514;2023-04-27T05:59:50;1008.954593129946;;;6.9008726042373585;34.788160093296526
46382;BME280;66809;52.974;-2.514;2023-04-27T06:01:50;1008.9487434810429;;;6.9236429985297;34.776501141965056
46382;BME280;66809;52.974;-2.514;2023-04-27T06:03:50;1008.9416622640779;;;6.9534131552195895;34.753413467629706
46382;BME280;66809;52.974;-2.514;2023-04-27T06:05:53;1008.9344371806142;;;6.98034894258791;34.734633404400874
46382;BME280;66809;52.974;-2.514;2023-04-27T06:07:50;1008.9265738454303;;;7.008539586116685;34.72034107452526
46382;BME280;66809;52.974;-2.514;2023-04-27T06:09:49;1008.9171419005438;;;7.043340550634311;34.70866023550817
46382;BME280;66809;52.974;-2.514;2023-04-27T06:11:50;1008.9075136485612;;;7.077153088550328;34.70411084998228
46382;BME280;66809;52.974;-2.514;2023-04-27T06:13:50;1008.8984250746519;;;7.100343652888839;34.69438147210046
46382;BME280;66809;52.974;-2.514;2023-04-27T06:15:49;1008.8886690995938;;;7.128875871287374;34.67507078602468
46382;BME280;66809;52.974;-2.514;2023-04-27T06:17:50;1008.8792416055985;;;7.158450979620989;34.65803611639306
46382;BME280;66809;52.974;-2.514;2023-04-27T06:19:49;1008.8717682814251;;;7.197410051553125;34.642473387471156
46382;BME280;66809;52.974;-2.514;2023-04-27T06:21:50;1008.8656955916515;;;7.241705336429502;34.63266615113733
46382;BME280;66809;52.974;-2.514;2023-04-27T06:23:50;1008.8593035490055;;;7.267098281424406;34.63035500973922
46382;BME280;66809;52.974;-2.514;2023-04-27T06:25:50;1008.8510211256175;;;7.29421359786423;34.62832569396928
46382;BME280;66809;52.974;-2.514;2023-04-27T06:27:50;1008.8420459429861;;;7.320463535722434;34.619859792862385
46382;BME280;66809;52.974;-2.514;2023-04-27T06:29:50;1008.8342064586972;;;7.343411578683277;34.626556998716644
46382;BME280;66809;52.974;-2.514;2023-04-27T06:31:50;1008.8287940957031;;;7.369073406285734;34.626599383235984
46382;BME280;66809;52.974;-2.514;2023-04-27T06:33:50;1008.8238059441093;;;7.407689961509209;34.62633066889999
46382;BME280;66809;52.974;-2.514;2023-04-27T06:35:50;1008.8181714680809;;;7.440543752385291;34.63001392429971
46382;BME280;66809;52.974;-2.514;2023-04-27T06:37:49;1008.812739116715;;;7.486710552353258;34.62165696275676
46382;BME280;66809;52.974;-2.514;2023-04-27T06:39:50;1008.8093078454705;;;7.518201114747044;34.59705337714297
46382;BME280;66809;52.974;-2.514;2023-04-27T06:41:50;1008.807300126917;;;7.553170004950227;34.565690235618874
46382;BME280;66809;52.974;-2.514;2023-04-27T06:43:51;1008.8061662419938;;;7.60166791599473;34.52232862372931
46382;BME280;66809;52.974;-2.514;2023-04-27T06:45:50;1008.8048474320954;;;7.64704036139264;34.474113099577835
46382;BME280;66809;52.974;-2.514;2023-04-27T06:47:50;1008.8032928827782;;;7.693941941097589;34.428506428957185
46382;BME280;66809;52.974;-2.514;2023-04-27T06:49:50;1008.7998854384792;;;7.747337297301314;34.37502816291721
46382;BME280;66809;52.974;-2.514;2023-04-27T06:51:50;1008.7964345691083;;;7.796621256990624;34.33326098622517
46382;BME280;66809;52.974;-2.514;2023-04-27T06:53:50;1008.7925541779085;;;7.827323252098454;34.30285807816272
46382;BME280;66809;52.974;-2.514;2023-04-27T06:55:50;1008.7893039942951;;;7.851235587711963;34.240497336449266
46382;BME280;66809;52.974;-2.514;2023-04-27T06:57:49;1008.7870387776238;;;7.894405148814527;34.18394612273473
46382;BME280;66809;52.974;-2.514;2023-04-27T06:59:50;1008.7855649954234;;;7.944590330043712;34.15084598580845
46382;BME280;66809;52.974;-2.514;2023-04-27T07:01:50;1008.7841781546083;;;7.994296628225471;34.09650955362903
46382;BME280;66809;52.974;-2.514;2023-04-27T07:03:49;1008.7812631938089;;;8.046504735105493;34.05410237735226
46382;BME280;66809;52.974;-2.514;2023-04-27T07:05:50;1008.7761210901491;;;8.083531583979758;33.99786061643206
46382;BME280;66809;52.974;-2.514;2023-04-27T07:07:50;1008.7712833133318;;;8.120978543871365;33.968829838319905
46382;BME280;66809;52.974;-2.514;2023-04-27T07:09:50;1008.7686143996046;;;8.150479319480185;33.93688956249189
46382;BME280;66809;52.974;-2.514;2023-04-27T07:11:50;1008.7672163468484;;;8.188388418495743;33.89640486386701
46382;BME280;66809;52.974;-2.514;2023-04-27T07:13:50;1008.767469513093;;;8.232751209935083;33.848943441325275